Time;durP1;ratioP1;P1;durP2;ratioP2;P2;SDS_P1;SDS_P2;PMS_P1;PMS_P2;Temp;Humidity;BMP_temperature;BMP_pressure;BME280_temperature;BME280_humidity;BME280_pressure;Samples;Min_cycle;Max_cycle;Signal;HPM_P1;HPM_P2
2021/11/15 00:01:06;;;;;;;3.33;3.00;;;23.30;39.40;;;;;;1817652;77;21068;-47
2021/11/15 00:03:34;;;;;;;4.58;3.70;;;23.30;39.40;;;;;;1850401;77;21102;-50
2021/11/15 00:06:01;;;;;;;3.65;3.22;;;23.30;39.50;;;;;;1850440;77;21505;-49
2021/11/15 00:08:29;;;;;;;3.10;2.80;;;23.30;39.40;;;;;;1850458;77;21579;-52
2021/11/15 00:10:57;;;;;;;3.72;3.22;;;23.30;39.40;;;;;;1850474;77;21614;-49
2021/11/15 00:13:25;;;;;;;3.58;3.12;;;23.30;39.40;;;;;;1850298;77;21079;-45
2021/11/15 00:15:52;;;;;;;3.50;2.92;;;23.30;39.40;;;;;;1849062;77;21097;-46
2021/11/15 00:18:20;;;;;;;3.67;3.25;;;23.30;39.50;;;;;;1847781;78;21525;-45
2021/11/15 00:20:48;;;;;;;3.42;2.80;;;23.40;39.50;;;;;;1847788;77;21575;-47
2021/11/15 00:23:15;;;;;;;3.30;2.95;;;23.30;39.50;;;;;;1847653;78;21561;-51
2021/11/15 00:25:43;;;;;;;3.00;2.58;;;23.40;39.50;;;;;;1847780;78;21133;-47
2021/11/15 00:28:10;;;;;;;3.80;2.58;;;23.40;39.40;;;;;;1847618;76;21079;-46
2021/11/15 00:30:38;;;;;;;3.17;2.65;;;23.40;39.40;;;;;;1847678;78;21113;-48
2021/11/15 00:33:05;;;;;;;3.12;2.70;;;23.40;39.50;;;;;;1847790;78;21485;-49
2021/11/15 00:35:33;;;;;;;2.92;2.52;;;23.40;39.50;;;;;;1847794;78;21586;-50
2021/11/15 00:38:01;;;;;;;2.77;2.35;;;23.40;39.50;;;;;;1847812;78;21540;-50
2021/11/15 00:40:29;;;;;;;2.52;2.33;;;23.40;39.40;;;;;;1847695;77;21104;-46
2021/11/15 00:42:57;;;;;;;2.52;2.33;;;23.30;39.40;;;;;;1847669;78;21116;-46
2021/11/15 00:45:25;;;;;;;3.00;2.55;;;23.30;39.40;;;;;;1847684;78;21593;-47
2021/11/15 00:47:52;;;;;;;3.30;2.55;;;23.40;39.40;;;;;;1847646;78;21115;-50
2021/11/15 00:50:21;;;;;;;2.72;2.52;;;23.40;39.40;;;;;;1847660;78;21561;-46
2021/11/15 00:52:50;;;;;;;2.55;2.35;;;23.40;39.40;;;;;;1847752;78;21095;-44
2021/11/15 00:55:17;;;;;;;2.75;2.45;;;23.40;39.40;;;;;;1847753;78;21502;-46
2021/11/15 00:57:45;;;;;;;2.17;1.95;;;23.30;39.30;;;;;;1847741;78;21520;-45
2021/11/15 01:00:15;;;;;;;2.80;2.60;;;23.40;39.30;;;;;;1847716;78;21146;-45
2021/11/15 01:02:43;;;;;;;2.17;1.98;;;23.40;39.40;;;;;;1847686;78;21084;-48
2021/11/15 01:05:10;;;;;;;2.33;2.12;;;23.40;39.30;;;;;;1847770;78;21493;-48
2021/11/15 01:07:38;;;;;;;2.52;2.27;;;23.40;39.30;;;;;;1847650;78;21123;-48
2021/11/15 01:10:06;;;;;;;2.77;2.45;;;23.30;39.30;;;;;;1847745;78;21517;-49
2021/11/15 01:12:34;;;;;;;2.42;2.20;;;23.40;39.30;;;;;;1847780;78;21161;-48
2021/11/15 01:15:02;;;;;;;2.30;2.10;;;23.40;39.40;;;;;;1847668;77;21585;-46
2021/11/15 01:17:29;;;;;;;2.30;2.08;;;23.40;39.40;;;;;;1847620;77;21537;-48
2021/11/15 01:19:57;;;;;;;2.70;2.30;;;23.40;39.40;;;;;;1847762;78;21517;-47
2021/11/15 01:22:24;;;;;;;2.85;2.52;;;23.40;39.40;;;;;;1847664;78;21162;-45
2021/11/15 01:24:52;;;;;;;3.10;2.60;;;23.40;39.30;;;;;;1847811;78;21497;-47
2021/11/15 01:27:19;;;;;;;2.85;2.55;;;23.40;39.30;;;;;;1847755;78;21512;-49
2021/11/15 01:29:47;;;;;;;2.35;2.15;;;23.40;39.30;;;;;;1847709;76;21601;-49
2021/11/15 01:32:15;;;;;;;2.90;2.60;;;23.40;39.30;;;;;;1847627;78;21115;-45
2021/11/15 01:34:42;;;;;;;2.85;2.55;;;23.40;39.40;;;;;;1847704;78;21095;-48
2021/11/15 01:37:10;;;;;;;2.60;2.20;;;23.40;39.40;;;;;;1847679;78;21576;-46
2021/11/15 01:39:37;;;;;;;2.45;2.25;;;23.40;39.30;;;;;;1847653;77;21545;-49
2021/11/15 01:42:05;;;;;;;3.05;2.67;;;23.40;39.40;;;;;;1847685;78;21163;-47
2021/11/15 01:44:33;;;;;;;2.75;2.42;;;23.40;39.40;;;;;;1847651;77;21096;-46
2021/11/15 01:47:01;;;;;;;2.17;1.98;;;23.40;39.40;;;;;;1847728;78;21574;-48
2021/11/15 01:49:28;;;;;;;2.27;2.08;;;23.40;39.40;;;;;;1847632;78;21170;-47
2021/11/15 01:51:56;;;;;;;2.40;2.20;;;23.40;39.40;;;;;;1847755;78;21508;-49
2021/11/15 01:54:23;;;;;;;2.83;2.47;;;23.40;39.30;;;;;;1847697;78;21469;-48
2021/11/15 01:56:52;;;;;;;2.83;2.40;;;23.40;39.40;;;;;;1847651;78;21634;-47
2021/11/15 01:59:19;;;;;;;2.67;2.40;;;23.40;39.40;;;;;;1847603;78;21069;-47
2021/11/15 02:01:47;;;;;;;2.65;2.37;;;23.40;39.40;;;;;;1847756;78;21519;-48
2021/11/15 02:04:14;;;;;;;2.83;2.55;;;23.40;39.40;;;;;;1847723;77;21110;-48
2021/11/15 02:06:43;;;;;;;2.42;2.22;;;23.40;39.40;;;;;;1847716;78;21575;-45
2021/11/15 02:09:10;;;;;;;2.72;2.52;;;23.40;39.40;;;;;;1847659;78;21111;-50
2021/11/15 02:11:38;;;;;;;2.80;2.55;;;23.40;39.40;;;;;;1847756;78;21465;-44
2021/11/15 02:14:06;;;;;;;2.85;2.55;;;23.40;39.40;;;;;;1847825;78;21501;-46
2021/11/15 02:16:33;;;;;;;2.90;2.52;;;23.40;39.40;;;;;;1847786;77;21532;-46
2021/11/15 02:19:01;;;;;;;3.05;2.75;;;23.40;39.40;;;;;;1847735;77;21075;-47
2021/11/15 02:21:28;;;;;;;3.00;2.70;;;23.40;39.40;;;;;;1847851;78;21083;-46
2021/11/15 02:23:57;;;;;;;2.90;2.60;;;23.40;39.40;;;;;;1847860;78;21571;-47
2021/11/15 02:26:24;;;;;;;2.20;2.00;;;23.40;39.40;;;;;;1847724;78;21340;-50
2021/11/15 02:28:53;;;;;;;3.05;2.75;;;23.40;39.40;;;;;;1847803;76;21581;-50
2021/11/15 02:31:28;;;;;;;2.80;2.60;;;23.40;39.40;;;;;;1847766;78;21583;-46
2021/11/15 02:33:56;;;;;;;3.12;2.80;;;23.40;39.40;;;;;;1847561;78;21147;-48
2021/11/15 02:36:25;;;;;;;3.20;2.80;;;23.40;39.50;;;;;;1847747;78;21052;-46
2021/11/15 02:38:53;;;;;;;3.02;2.72;;;23.40;39.50;;;;;;1847713;78;21072;-48
2021/11/15 02:41:21;;;;;;;3.20;2.67;;;23.40;39.50;;;;;;1847713;78;21512;-45
2021/11/15 02:43:48;;;;;;;3.02;2.75;;;23.40;39.50;;;;;;1847717;78;21174;-47
2021/11/15 02:46:16;;;;;;;2.87;2.50;;;23.40;39.50;;;;;;1847762;78;21509;-49
2021/11/15 02:48:44;;;;;;;2.90;2.60;;;23.40;39.50;;;;;;1847715;78;21044;-46
2021/11/15 02:51:11;;;;;;;3.15;2.65;;;23.40;39.50;;;;;;1847862;78;21582;-48
2021/11/15 02:53:39;;;;;;;3.77;3.05;;;23.40;39.60;;;;;;1847709;78;21109;-48
2021/11/15 02:56:07;;;;;;;2.58;2.33;;;23.40;39.60;;;;;;1847823;78;21545;-51
2021/11/15 02:58:34;;;;;;;3.27;2.98;;;23.40;39.50;;;;;;1847701;78;21566;-48
2021/11/15 03:01:14;;;;;;;3.08;2.72;;;23.40;39.50;;;;;;1847833;78;21556;-51
2021/11/15 03:03:41;;;;;;;3.08;2.65;;;23.40;39.50;;;;;;1847818;78;21450;-47
2021/11/15 03:06:09;;;;;;;3.02;2.70;;;23.40;39.60;;;;;;1847764;78;21497;-49
2021/11/15 03:08:37;;;;;;;3.22;2.92;;;23.40;39.60;;;;;;1847677;78;21036;-46
2021/11/15 03:11:05;;;;;;;2.60;2.40;;;23.40;39.60;;;;;;1847797;78;21646;-46
2021/11/15 03:13:36;;;;;;;3.50;2.92;;;23.40;39.60;;;;;;1847739;78;21036;-47
2021/11/15 03:16:04;;;;;;;2.98;2.42;;;23.40;39.60;;;;;;1847456;78;21676;-46
2021/11/15 03:18:36;;;;;;;3.02;2.67;;;23.40;39.60;;;;;;1847512;77;21554;-47
2021/11/15 03:21:05;;;;;;;3.55;2.90;;;23.40;39.60;;;;;;1847530;78;21602;-46
2021/11/15 03:23:38;;;;;;;3.50;2.77;;;23.40;39.60;;;;;;1847513;78;21445;-50
2021/11/15 03:26:06;;;;;;;2.72;2.47;;;23.30;39.60;;;;;;1847613;78;21537;-45
2021/11/15 03:28:36;;;;;;;3.40;3.00;;;23.30;39.60;;;;;;1847488;76;21531;-48
2021/11/15 03:31:06;;;;;;;3.35;2.85;;;23.30;39.60;;;;;;1847517;78;21087;-50
2021/11/15 03:33:34;;;;;;;3.52;2.65;;;23.30;39.70;;;;;;1847771;78;21123;-46
2021/11/15 03:36:02;;;;;;;3.35;2.70;;;23.30;39.70;;;;;;1847612;78;21106;-47
2021/11/15 03:38:30;;;;;;;3.70;3.30;;;23.40;39.70;;;;;;1847529;78;21488;-49
2021/11/15 03:40:57;;;;;;;3.42;2.80;;;23.40;39.70;;;;;;1847580;78;21634;-46
2021/11/15 03:43:25;;;;;;;3.60;3.00;;;23.40;39.70;;;;;;1847606;78;21588;-47
2021/11/15 03:45:52;;;;;;;4.05;3.20;;;23.40;39.60;;;;;;1847464;78;21118;-44
2021/11/15 03:48:23;;;;;;;2.77;2.40;;;23.40;39.60;;;;;;1847502;78;21130;-49
2021/11/15 03:50:54;;;;;;;4.60;3.20;;;23.40;39.60;;;;;;1847550;78;21162;-48
2021/11/15 03:53:19;;;;;;;3.30;2.72;;;23.40;39.70;;;;;;1846929;78;21108;-47
2021/11/15 03:55:47;;;;;;;3.52;2.87;;;23.40;39.60;;;;;;1847503;78;21067;-45
2021/11/15 03:58:14;;;;;;;4.62;3.30;;;23.40;39.50;;;;;;1847502;78;21576;-46
2021/11/15 04:00:42;;;;;;;3.45;3.05;;;23.40;39.40;;;;;;1847459;78;21520;-45
2021/11/15 04:04:17;;;;;;;4.78;3.60;;;23.40;39.40;;;;;;1847590;77;21517;-48
2021/11/15 04:05:57;;;;;;;4.37;3.60;;;23.40;39.30;;;;;;1825087;78;21100;-46
2021/11/15 04:08:20;;;;;;;4.70;3.45;;;23.30;39.30;;;;;;1846220;78;21164;-49
2021/11/15 04:10:48;;;;;;;4.83;3.52;;;23.30;39.30;;;;;;1847558;78;21665;-49
2021/11/15 04:13:24;;;;;;;4.72;3.35;;;23.30;39.10;;;;;;1847565;78;21469;-44
2021/11/15 04:15:53;;;;;;;5.17;3.92;;;23.40;39.10;;;;;;1847485;78;21075;-45
2021/11/15 04:18:23;;;;;;;5.17;4.03;;;23.30;39.10;;;;;;1851206;77;21082;-45
2021/11/15 04:20:51;;;;;;;4.47;3.80;;;23.30;39.10;;;;;;1852798;77;21117;-50
2021/11/15 04:23:19;;;;;;;6.08;4.00;;;23.30;39.10;;;;;;1852826;77;21154;-45
2021/11/15 04:25:47;;;;;;;5.42;3.90;;;23.30;39.10;;;;;;1852799;77;21150;-47
2021/11/15 04:28:15;;;;;;;6.80;3.98;;;23.30;38.90;;;;;;1852838;76;21078;-47
2021/11/15 04:30:42;;;;;;;5.05;3.92;;;23.30;38.90;;;;;;1852932;77;21501;-48
2021/11/15 04:33:10;;;;;;;5.67;4.08;;;23.30;38.80;;;;;;1852869;77;21095;-48
2021/11/15 04:35:37;;;;;;;5.60;3.98;;;23.30;38.80;;;;;;1852808;77;21055;-49
2021/11/15 04:38:06;;;;;;;5.90;4.37;;;23.40;38.80;;;;;;1852881;77;21657;-47
2021/11/15 04:40:34;;;;;;;4.28;3.65;;;23.40;38.90;;;;;;1852806;77;21465;-46
2021/11/15 04:43:02;;;;;;;6.08;4.45;;;23.40;38.80;;;;;;1852786;77;21121;-46
2021/11/15 04:45:31;;;;;;;5.42;4.15;;;23.40;38.80;;;;;;1852786;77;21141;-50
2021/11/15 04:47:58;;;;;;;5.35;3.92;;;23.40;38.80;;;;;;1852783;77;21516;-45
2021/11/15 04:50:25;;;;;;;7.00;4.37;;;23.40;38.80;;;;;;1852739;77;21067;-44
2021/11/15 04:52:53;;;;;;;7.62;5.08;;;23.40;38.80;;;;;;1852791;77;21598;-52
2021/11/15 04:55:22;;;;;;;5.90;4.60;;;23.40;38.90;;;;;;1852832;77;21497;-46
2021/11/15 04:57:50;;;;;;;6.37;4.67;;;23.40;38.90;;;;;;1852691;77;21541;-51
2021/11/15 05:00:24;;;;;;;5.53;4.20;;;23.40;39.00;;;;;;1852782;77;21122;-48
2021/11/15 05:02:51;;;;;;;5.65;4.25;;;23.40;39.20;;;;;;1852681;77;21497;-50
2021/11/15 05:05:19;;;;;;;5.45;4.10;;;23.40;39.20;;;;;;1852710;77;21088;-48
2021/11/15 05:07:47;;;;;;;6.12;4.47;;;23.40;39.20;;;;;;1852751;77;21137;-47
2021/11/15 05:10:16;;;;;;;5.28;4.08;;;23.40;39.30;;;;;;1852814;77;21122;-48
2021/11/15 05:12:43;;;;;;;8.03;4.65;;;23.30;39.40;;;;;;1852720;77;21044;-50
2021/11/15 05:15:12;;;;;;;5.80;4.17;;;23.30;39.30;;;;;;1852736;77;21586;-50
2021/11/15 05:17:42;;;;;;;7.70;4.35;;;23.30;39.30;;;;;;1852611;77;21071;-51
2021/11/15 05:20:10;;;;;;;7.62;4.28;;;23.40;39.30;;;;;;1852633;77;21079;-51
2021/11/15 05:22:38;;;;;;;7.53;5.10;;;23.30;39.10;;;;;;1852675;77;21536;-56
2021/11/15 05:25:07;;;;;;;10.03;4.72;;;23.30;38.90;;;;;;1852657;77;21091;-54
2021/11/15 05:27:35;;;;;;;8.45;5.03;;;23.40;38.90;;;;;;1852735;77;21610;-54
2021/11/15 05:30:04;;;;;;;6.67;4.78;;;23.40;38.90;;;;;;1852623;76;21172;-48
2021/11/15 05:32:32;;;;;;;9.60;5.20;;;23.40;38.80;;;;;;1852651;77;21137;-52
2021/11/15 05:34:59;;;;;;;7.80;4.80;;;23.30;38.70;;;;;;1852628;77;21088;-48
2021/11/15 05:37:28;;;;;;;8.08;4.55;;;23.40;38.90;;;;;;1852673;77;21563;-44
2021/11/15 05:39:55;;;;;;;9.15;4.45;;;23.40;39.10;;;;;;1852730;77;21197;-47
2021/11/15 05:42:22;;;;;;;9.13;5.45;;;23.40;38.90;;;;;;1852650;77;21124;-46
2021/11/15 05:44:50;;;;;;;7.83;4.97;;;23.40;38.60;;;;;;1852586;77;21079;-45
2021/11/15 05:47:17;;;;;;;9.88;5.03;;;23.40;38.60;;;;;;1852678;77;21598;-49
2021/11/15 05:49:45;;;;;;;7.90;5.20;;;23.40;38.40;;;;;;1852724;77;21641;-47
2021/11/15 05:52:15;;;;;;;8.20;5.42;;;23.40;38.30;;;;;;1852685;77;21087;-46
2021/11/15 05:54:42;;;;;;;9.20;4.50;;;23.40;38.30;;;;;;1852576;77;21622;-46
2021/11/15 05:57:10;;;;;;;8.73;5.95;;;23.40;38.40;;;;;;1852730;77;21597;-46
2021/11/15 05:59:38;;;;;;;7.67;5.15;;;23.40;38.30;;;;;;1852581;77;21083;-51
2021/11/15 06:02:06;;;;;;;7.97;5.25;;;23.40;38.60;;;;;;1852783;77;21078;-45
2021/11/15 06:04:33;;;;;;;17.82;6.20;;;23.40;38.30;;;;;;1852601;77;21067;-49
2021/11/15 06:07:01;;;;;;;10.32;5.22;;;23.40;38.10;;;;;;1852660;77;21051;-47
2021/11/15 06:09:28;;;;;;;6.72;4.42;;;23.40;38.20;;;;;;1852676;77;21489;-52
2021/11/15 06:11:56;;;;;;;8.15;4.67;;;23.40;38.30;;;;;;1852858;77;21106;-48
2021/11/15 06:14:24;;;;;;;7.85;4.65;;;23.40;38.40;;;;;;1852621;77;21082;-56
2021/11/15 06:16:51;;;;;;;8.40;4.78;;;23.40;38.20;;;;;;1852730;77;21145;-51
2021/11/15 06:19:19;;;;;;;9.40;4.90;;;23.40;38.70;;;;;;1848930;77;21571;-51
2021/11/15 06:21:47;;;;;;;8.75;5.22;;;23.40;38.20;;;;;;1847355;78;21106;-54
2021/11/15 06:24:15;;;;;;;11.30;5.90;;;23.40;37.90;;;;;;1847311;78;21145;-50
2021/11/15 06:26:42;;;;;;;7.65;4.97;;;23.40;37.80;;;;;;1847364;77;21543;-47
2021/11/15 06:29:10;;;;;;;8.48;4.58;;;23.40;37.80;;;;;;1847427;76;21091;-50
2021/11/15 06:31:38;;;;;;;9.23;4.72;;;23.40;37.90;;;;;;1847374;78;21556;-54
2021/11/15 06:34:06;;;;;;;7.08;5.10;;;23.40;37.80;;;;;;1847378;78;21608;-50
2021/11/15 06:36:33;;;;;;;22.52;5.78;;;23.40;37.70;;;;;;1847243;78;21532;-50
2021/11/15 06:39:01;;;;;;;8.18;4.92;;;23.40;37.40;;;;;;1847374;78;21548;-56
2021/11/15 06:41:28;;;;;;;7.80;4.87;;;23.40;37.70;;;;;;1847235;78;21063;-52
2021/11/15 06:43:56;;;;;;;7.25;4.37;;;23.40;37.70;;;;;;1847362;78;21588;-46
2021/11/15 06:46:24;;;;;;;8.30;5.42;;;23.40;37.70;;;;;;1847282;78;21052;-50
2021/11/15 06:48:51;;;;;;;10.72;5.35;;;23.40;37.60;;;;;;1847344;78;21079;-49
2021/11/15 06:51:19;;;;;;;12.33;5.35;;;23.40;37.30;;;;;;1847263;78;21051;-51
2021/11/15 06:53:47;;;;;;;7.20;4.92;;;23.40;37.20;;;;;;1847412;78;21132;-48
2021/11/15 06:56:14;;;;;;;7.75;5.00;;;23.40;37.30;;;;;;1847087;78;21562;-54
2021/11/15 06:58:42;;;;;;;9.53;4.85;;;23.40;37.20;;;;;;1847337;78;21075;-56
2021/11/15 07:01:10;;;;;;;8.88;5.00;;;23.40;37.30;;;;;;1847298;78;21138;-53
2021/11/15 07:03:37;;;;;;;6.37;4.55;;;23.40;37.40;;;;;;1847286;78;21184;-50
2021/11/15 07:06:05;;;;;;;7.70;4.92;;;23.40;37.30;;;;;;1847427;78;21541;-52
2021/11/15 07:08:32;;;;;;;9.23;4.65;;;23.40;37.30;;;;;;1847368;78;21605;-47
2021/11/15 07:11:00;;;;;;;7.37;4.62;;;23.40;37.40;;;;;;1847483;78;21110;-54
2021/11/15 07:13:27;;;;;;;7.65;4.75;;;23.40;37.70;;;;;;1847392;78;21592;-54
2021/11/15 07:15:55;;;;;;;8.10;4.22;;;23.40;37.60;;;;;;1847373;78;21506;-54
2021/11/15 07:18:23;;;;;;;8.13;4.22;;;23.40;37.60;;;;;;1847552;77;21512;-53
2021/11/15 07:20:51;;;;;;;8.70;4.80;;;23.40;37.50;;;;;;1847293;78;21504;-53
2021/11/15 07:23:18;;;;;;;7.20;4.30;;;23.40;37.40;;;;;;1847217;78;21160;-51
2021/11/15 07:25:46;;;;;;;7.40;5.10;;;23.40;37.30;;;;;;1847441;78;21164;-47
2021/11/15 07:28:13;;;;;;;9.23;4.97;;;23.40;37.10;;;;;;1847250;76;21485;-56
2021/11/15 07:30:41;;;;;;;6.90;4.60;;;23.50;37.30;;;;;;1847368;77;21535;-49
2021/11/15 07:33:09;;;;;;;7.90;5.10;;;23.40;37.20;;;;;;1847364;78;21575;-53
2021/11/15 07:35:36;;;;;;;7.55;4.40;;;23.50;37.10;;;;;;1847397;78;21095;-55
2021/11/15 07:38:04;;;;;;;8.33;5.15;;;23.40;37.20;;;;;;1847553;78;21489;-48
2021/11/15 07:40:32;;;;;;;8.03;5.08;;;23.50;37.30;;;;;;1847374;78;21512;-49
2021/11/15 07:43:00;;;;;;;7.72;4.90;;;23.50;37.20;;;;;;1847331;78;21497;-52
2021/11/15 07:45:28;;;;;;;10.53;5.50;;;23.50;37.10;;;;;;1847251;78;21528;-50
2021/11/15 07:47:57;;;;;;;9.30;5.50;;;23.40;37.00;;;;;;1847395;78;21658;-54
2021/11/15 07:50:25;;;;;;;8.10;4.87;;;23.40;36.90;;;;;;1847440;78;21508;-47
2021/11/15 07:52:52;;;;;;;7.90;5.10;;;23.40;37.10;;;;;;1847395;78;21109;-47
2021/11/15 07:55:19;;;;;;;9.28;5.90;;;23.40;37.00;;;;;;1847407;77;21117;-50
2021/11/15 07:57:47;;;;;;;10.15;6.05;;;23.40;36.90;;;;;;1847359;77;21081;-56
2021/11/15 08:00:17;;;;;;;12.37;6.67;;;23.40;36.70;;;;;;1847402;78;21694;-53
2021/11/15 08:02:45;;;;;;;9.20;6.00;;;23.40;36.70;;;;;;1847408;78;21020;-49
2021/11/15 08:05:14;;;;;;;9.48;6.12;;;23.40;36.80;;;;;;1847361;78;21618;-53
2021/11/15 08:07:41;;;;;;;8.90;5.17;;;23.40;36.90;;;;;;1847242;78;21083;-50
2021/11/15 08:10:10;;;;;;;9.13;5.58;;;23.40;37.10;;;;;;1847336;78;21054;-55
2021/11/15 08:12:40;;;;;;;8.30;5.70;;;23.40;37.00;;;;;;1847248;78;21134;-58
2021/11/15 08:15:09;;;;;;;10.08;6.05;;;23.40;37.20;;;;;;1846963;78;21521;-50
2021/11/15 08:17:38;;;;;;;10.53;5.97;;;23.40;37.10;;;;;;1847353;78;21087;-53
2021/11/15 08:20:08;;;;;;;9.08;5.47;;;23.40;37.30;;;;;;1847384;77;21593;-53
2021/11/15 08:22:36;;;;;;;9.00;5.37;;;23.40;37.20;;;;;;1847298;77;21583;-45
2021/11/15 08:25:13;;;;;;;11.12;5.30;;;23.40;37.10;;;;;;1847352;78;21075;-52
2021/11/15 08:27:40;;;;;;;9.78;5.67;;;23.40;37.30;;;;;;1845578;78;21493;-53
2021/11/15 08:30:08;;;;;;;9.60;5.55;;;23.40;37.20;;;;;;1847314;76;21611;-53
2021/11/15 08:32:38;;;;;;;12.35;7.15;;;23.40;36.90;;;;;;1847480;78;21597;-53
2021/11/15 08:35:06;;;;;;;13.80;6.80;;;23.40;36.70;;;;;;1847170;78;21109;-45
2021/11/15 08:37:34;;;;;;;10.25;6.47;;;23.40;36.60;;;;;;1847536;78;21133;-53
2021/11/15 08:40:02;;;;;;;9.88;6.28;;;23.40;36.60;;;;;;1847316;78;21083;-50
2021/11/15 08:42:29;;;;;;;12.95;6.78;;;23.40;36.60;;;;;;1847436;78;21517;-49
2021/11/15 08:45:01;;;;;;;11.25;6.50;;;23.40;36.60;;;;;;1847289;78;21103;-52
2021/11/15 08:47:28;;;;;;;12.70;6.15;;;23.40;36.60;;;;;;1847168;78;21108;-53
2021/11/15 08:49:55;;;;;;;13.35;6.85;;;23.30;36.60;;;;;;1847318;78;21062;-47
2021/11/15 08:52:23;;;;;;;10.85;5.90;;;23.30;36.80;;;;;;1847456;78;21489;-56
2021/11/15 08:54:51;;;;;;;10.00;5.87;;;23.40;36.90;;;;;;1847454;78;21532;-52
2021/11/15 08:57:20;;;;;;;11.83;5.80;;;23.40;36.90;;;;;;1847316;78;21162;-52
2021/11/15 08:59:48;;;;;;;11.20;5.90;;;23.40;37.60;;;;;;1847341;78;21243;-56
2021/11/15 09:02:15;;;;;;;8.85;5.83;;;23.40;36.80;;;;;;1847399;78;21529;-56
2021/11/15 09:04:43;;;;;;;12.85;7.42;;;23.40;36.80;;;;;;1847424;78;21561;-55
2021/11/15 09:07:11;;;;;;;11.90;6.42;;;23.40;36.80;;;;;;1847432;77;21531;-50
2021/11/15 09:09:40;;;;;;;9.43;5.95;;;23.40;36.80;;;;;;1847302;78;21063;-53
2021/11/15 09:12:09;;;;;;;10.15;6.33;;;23.40;36.90;;;;;;1847395;78;21135;-55
2021/11/15 09:14:38;;;;;;;12.33;6.25;;;23.40;36.90;;;;;;1847472;78;21146;-52
2021/11/15 09:17:06;;;;;;;10.55;5.72;;;23.40;37.00;;;;;;1846546;78;21083;-55
2021/11/15 09:19:34;;;;;;;13.28;5.78;;;23.40;37.10;;;;;;1848338;77;21160;-55
2021/11/15 09:22:01;;;;;;;9.85;5.70;;;23.40;37.00;;;;;;1852713;76;21552;-50
2021/11/15 09:24:29;;;;;;;12.55;6.05;;;23.40;36.90;;;;;;1852616;77;21149;-57
2021/11/15 09:27:01;;;;;;;12.10;5.25;;;23.40;36.90;;;;;;1852558;77;21114;-53
2021/11/15 09:29:29;;;;;;;11.57;5.33;;;23.40;36.80;;;;;;1852527;76;21099;-54
2021/11/15 09:31:56;;;;;;;9.35;5.80;;;23.30;36.80;;;;;;1852795;77;21196;-57
2021/11/15 09:34:25;;;;;;;12.15;6.53;;;23.40;36.80;;;;;;1852607;77;21140;-52
2021/11/15 09:36:52;;;;;;;10.38;5.55;;;23.40;36.80;;;;;;1852745;77;21084;-51
2021/11/15 09:39:21;;;;;;;10.13;5.90;;;23.40;36.80;;;;;;1852617;77;21176;-58
2021/11/15 09:41:49;;;;;;;13.10;5.37;;;23.40;36.80;;;;;;1852725;77;21048;-53
2021/11/15 09:44:17;;;;;;;10.00;5.80;;;23.40;36.90;;;;;;1852741;77;21645;-52
2021/11/15 09:46:46;;;;;;;7.72;4.08;;;23.40;36.90;;;;;;1852712;77;21161;-57
2021/11/15 09:49:14;;;;;;;10.45;5.00;;;23.40;37.10;;;;;;1852750;77;21075;-56
2021/11/15 09:51:42;;;;;;;10.58;5.75;;;23.40;37.10;;;;;;1852739;77;21044;-51
2021/11/15 09:54:09;;;;;;;10.38;4.62;;;23.40;37.00;;;;;;1852807;77;21133;-58
2021/11/15 09:56:37;;;;;;;18.80;6.30;;;23.50;37.10;;;;;;1852779;77;21188;-56
2021/11/15 09:59:06;;;;;;;10.95;5.80;;;23.50;36.70;;;;;;1852786;77;21551;-49
2021/11/15 10:01:34;;;;;;;11.28;6.22;;;23.40;36.40;;;;;;1852812;77;21075;-57
2021/11/15 10:04:02;;;;;;;10.78;6.35;;;23.40;36.40;;;;;;1852678;77;21071;-54
2021/11/15 10:06:29;;;;;;;9.33;5.53;;;23.40;36.40;;;;;;1852649;77;21153;-51
2021/11/15 10:09:00;;;;;;;11.15;5.72;;;23.40;36.50;;;;;;1852670;77;21556;-51
2021/11/15 10:11:27;;;;;;;9.75;5.10;;;23.40;36.70;;;;;;1852625;77;21123;-53
2021/11/15 10:13:55;;;;;;;7.47;4.62;;;23.40;36.70;;;;;;1852825;77;21532;-53
2021/11/15 10:16:24;;;;;;;8.73;4.85;;;23.40;36.70;;;;;;1852668;77;21063;-56
2021/11/15 10:18:57;;;;;;;9.03;4.50;;;23.40;36.80;;;;;;1851815;77;21504;-52
2021/11/15 10:21:29;;;;;;;10.63;5.10;;;23.40;36.80;;;;;;1852642;77;21239;-57
2021/11/15 10:24:04;;;;;;;9.35;5.00;;;23.40;36.90;;;;;;1852656;77;21074;-53
2021/11/15 10:26:39;;;;;;;6.50;4.25;;;23.40;36.80;;;;;;1852175;77;21095;-49
2021/11/15 10:29:15;;;;;;;7.45;4.12;;;23.40;36.90;;;;;;1852397;76;21103;-54
2021/11/15 10:31:59;;;;;;;6.85;4.25;;;23.40;36.90;;;;;;1852834;77;21056;-53
2021/11/15 10:34:37;;;;;;;6.75;3.62;;;23.40;37.00;;;;;;1821788;77;21145;-58
2021/11/15 10:37:10;;;;;;;7.67;4.12;;;23.30;37.10;;;;;;1852804;77;21141;-54
2021/11/15 10:40:06;;;;;;;6.58;4.20;;;23.30;37.10;;;;;;1852545;77;21091;-53
2021/11/15 10:42:42;;;;;;;6.62;3.80;;;23.30;37.00;;;;;;1852824;77;21145;-55
2021/11/15 10:45:21;;;;;;;10.10;4.37;;;23.30;37.10;;;;;;1852989;77;21606;-54
2021/11/15 10:47:56;;;;;;;5.53;3.22;;;23.30;37.10;;;;;;1852743;77;21090;-49
2021/11/15 10:50:31;;;;;;;7.45;3.60;;;23.30;37.20;;;;;;1852730;77;21063;-51
2021/11/15 10:53:05;;;;;;;6.65;3.70;;;23.30;37.20;;;;;;1852419;77;21051;-48
2021/11/15 10:55:36;;;;;;;7.35;3.50;;;23.30;37.20;;;;;;1852630;77;21133;-50
2021/11/15 10:58:13;;;;;;;7.47;3.77;;;23.30;37.30;;;;;;1852680;77;21552;-50
2021/11/15 11:00:43;;;;;;;8.65;4.85;;;23.40;37.10;;;;;;1851507;77;21122;-48
2021/11/15 11:03:12;;;;;;;6.95;3.80;;;23.40;37.10;;;;;;1852144;77;21586;-47
2021/11/15 11:05:41;;;;;;;6.62;4.30;;;23.40;37.00;;;;;;1852843;77;21202;-47
2021/11/15 11:08:26;;;;;;;8.10;4.67;;;23.40;36.90;;;;;;1852779;77;21528;-47
2021/11/15 11:10:59;;;;;;;8.93;3.85;;;23.40;36.80;;;;;;1852593;77;21092;-56
2021/11/15 11:13:27;;;;;;;9.93;3.75;;;23.40;37.00;;;;;;1850134;77;21163;-52
2021/11/15 11:15:55;;;;;;;6.05;3.85;;;23.40;36.80;;;;;;1852766;77;21134;-50
2021/11/15 11:18:36;;;;;;;6.03;3.95;;;23.40;36.70;;;;;;1852745;77;21162;-52
2021/11/15 11:24:15;;;;;;;5.72;3.87;;;23.40;36.80;;;;;;1847328;77;21168;-47
2021/11/15 11:26:30;;;;;;;7.50;4.20;;;23.40;36.80;;;;;;1841854;76;21095;-52
2021/11/15 11:29:13;;;;;;;6.37;3.00;;;23.40;36.90;;;;;;1847076;76;21107;-49
2021/11/15 11:31:42;;;;;;;6.05;3.70;;;23.40;37.10;;;;;;1847233;78;21087;-51
2021/11/15 11:34:10;;;;;;;6.50;4.28;;;23.40;37.70;;;;;;1847119;78;21551;-52
2021/11/15 11:36:38;;;;;;;6.25;3.47;;;23.40;36.90;;;;;;1847424;78;21557;-50
2021/11/15 11:39:09;;;;;;;7.67;4.80;;;23.40;36.90;;;;;;1847413;78;21116;-49
2021/11/15 11:41:44;;;;;;;10.13;4.60;;;23.40;36.70;;;;;;1847129;78;21576;-52
2021/11/15 11:44:13;;;;;;;8.23;4.78;;;23.40;36.70;;;;;;1847514;78;21063;-52
2021/11/15 11:46:42;;;;;;;10.30;4.85;;;23.40;37.00;;;;;;1847429;78;21186;-50
2021/11/15 11:49:12;;;;;;;10.43;4.72;;;23.40;36.30;;;;;;1847322;78;21165;-44
2021/11/15 11:51:41;;;;;;;9.73;5.28;;;23.40;36.30;;;;;;1847428;78;21525;-50
2021/11/15 11:54:21;;;;;;;7.20;4.78;;;23.40;36.20;;;;;;1847484;78;21615;-53
2021/11/15 11:57:03;;;;;;;7.22;5.17;;;23.40;36.20;;;;;;1845302;78;21586;-47
2021/11/15 11:59:31;;;;;;;7.50;4.65;;;23.40;36.30;;;;;;1847565;78;21072;-46
2021/11/15 12:02:08;;;;;;;7.00;4.67;;;23.30;36.40;;;;;;1847372;78;21194;-46
2021/11/15 12:04:47;;;;;;;8.98;4.22;;;23.40;36.90;;;;;;1847478;78;21213;-52
2021/11/15 12:07:36;;;;;;;11.10;4.45;;;23.30;36.70;;;;;;1847291;78;21453;-52
2021/11/15 12:10:18;;;;;;;13.88;5.60;;;23.30;36.70;;;;;;1847337;78;21161;-52
2021/11/15 12:12:56;;;;;;;14.98;5.85;;;23.30;36.80;;;;;;1847230;75;21097;-55
2021/11/15 12:15:43;;;;;;;11.08;6.12;;;23.30;37.10;;;;;;1847359;78;21529;-56
2021/11/15 12:18:13;;;;;;;10.78;5.30;;;23.30;36.80;;;;;;1845089;78;21597;-50
2021/11/15 12:21:04;;;;;;;9.60;5.85;;;23.30;36.90;;;;;;1847344;77;21530;-48
2021/11/15 12:23:33;;;;;;;11.63;6.10;;;23.30;36.70;;;;;;1847303;78;21199;-44
2021/11/15 12:26:10;;;;;;;13.72;6.75;;;23.30;36.70;;;;;;1847550;78;21064;-42
2021/11/15 12:28:45;;;;;;;10.68;6.45;;;23.30;36.60;;;;;;1847483;76;21158;-46
2021/11/15 12:31:16;;;;;;;13.72;6.50;;;23.30;36.70;;;;;;1847459;78;21060;-47
2021/11/15 12:33:43;;;;;;;13.00;6.60;;;23.30;36.50;;;;;;1847342;78;21071;-49
2021/11/15 12:36:17;;;;;;;15.95;7.35;;;23.40;36.60;;;;;;1847429;78;21548;-53
2021/11/15 12:38:50;;;;;;;17.32;7.28;;;23.40;36.40;;;;;;1846813;78;21112;-47
2021/11/15 12:41:24;;;;;;;13.48;7.42;;;23.40;36.50;;;;;;1846882;78;21127;-52
2021/11/15 12:44:05;;;;;;;17.17;9.35;;;23.40;36.60;;;;;;1847348;78;21083;-52
2021/11/15 12:46:44;;;;;;;15.75;9.40;;;23.40;36.50;;;;;;1847326;78;21581;-50
2021/11/15 12:49:34;;;;;;;17.20;9.23;;;23.40;36.50;;;;;;1847238;78;21103;-45
2021/11/15 12:52:16;;;;;;;15.83;8.48;;;23.40;36.40;;;;;;1847337;78;21104;-43
2021/11/15 12:54:56;;;;;;;14.98;8.48;;;23.40;36.60;;;;;;1847264;78;21091;-43
2021/11/15 12:57:26;;;;;;;23.67;10.72;;;23.40;36.60;;;;;;1847239;78;21059;-49
2021/11/15 12:59:57;;;;;;;18.30;10.78;;;23.40;36.40;;;;;;1847124;78;21173;-48